createdAt,value
2022-12-08T00:00:01.481Z,25.27
2022-12-08T00:02:28.265Z,18.25
2022-12-08T00:04:55.206Z,21.65
2022-12-08T00:07:21.826Z,25.27
2022-12-08T00:09:49.565Z,23.55
2022-12-08T00:12:16.227Z,21.70
2022-12-08T00:14:45.268Z,24.38
2022-12-08T00:17:15.214Z,21.95
2022-12-08T00:19:43.047Z,21.85
2022-12-08T00:22:10.897Z,24.33
2022-12-08T00:24:39.115Z,25.50
2022-12-08T00:27:07.412Z,21.17
2022-12-08T00:29:34.053Z,26.08
2022-12-08T00:32:00.859Z,26.15
2022-12-08T00:34:27.600Z,26.80
2022-12-08T00:36:54.257Z,25.50
2022-12-08T00:39:20.904Z,25.45
2022-12-08T00:41:47.617Z,33.53
2022-12-08T00:44:16.520Z,30.23
2022-12-08T00:46:43.200Z,27.08
2022-12-08T00:49:09.890Z,24.50
2022-12-08T00:51:37.243Z,26.23
2022-12-08T00:54:05.278Z,25.38
2022-12-08T00:56:32.553Z,25.00
2022-12-08T00:58:59.970Z,26.17
2022-12-08T01:01:27.629Z,26.75
2022-12-08T01:03:54.333Z,26.33
2022-12-08T01:06:21.043Z,26.88
2022-12-08T01:08:47.761Z,25.08
2022-12-08T01:11:19.452Z,27.67
2022-12-08T01:13:46.848Z,25.67
2022-12-08T01:16:30.970Z,26.27
2022-12-08T01:18:59.296Z,28.13
2022-12-08T01:21:26.996Z,25.20
2022-12-08T01:23:54.426Z,29.00
2022-12-08T01:26:21.535Z,28.17
2022-12-08T01:28:48.508Z,30.50
2022-12-08T01:31:20.538Z,26.70
2022-12-08T01:33:47.876Z,32.30
2022-12-08T01:36:29.308Z,34.65
2022-12-08T01:38:58.861Z,38.13
2022-12-08T01:41:31.542Z,26.40
2022-12-08T01:44:22.683Z,28.02
2022-12-08T01:46:49.794Z,33.40
2022-12-08T01:49:32.918Z,33.78
2022-12-08T01:52:22.414Z,29.27
2022-12-08T01:55:02.419Z,29.55
2022-12-08T01:57:36.391Z,34.60
2022-12-08T02:00:08.160Z,28.23
2022-12-08T02:03:00.239Z,29.55
2022-12-08T02:05:30.989Z,30.27
2022-12-08T02:08:00.069Z,30.90
2022-12-08T02:10:33.050Z,32.08
2022-12-08T02:13:01.025Z,30.85
2022-12-08T02:15:46.704Z,38.30
2022-12-08T02:18:34.276Z,32.10
2022-12-08T02:21:23.728Z,31.25
2022-12-08T02:23:59.691Z,29.00
2022-12-08T02:26:32.159Z,30.35
2022-12-08T02:29:17.531Z,27.55
2022-12-08T02:32:05.357Z,30.33
2022-12-08T02:34:38.809Z,27.73
2022-12-08T02:37:29.388Z,29.92
2022-12-08T02:40:06.354Z,28.00
2022-12-08T02:42:43.590Z,27.85
2022-12-08T02:45:16.958Z,27.75
2022-12-08T02:47:44.612Z,27.83
2022-12-08T02:50:12.086Z,25.00
2022-12-08T02:52:44.369Z,23.33
2022-12-08T02:55:20.744Z,24.05
2022-12-08T02:58:28.726Z,22.50
2022-12-08T03:01:07.564Z,23.70
2022-12-08T03:03:44.704Z,22.30
2022-12-08T03:06:30.552Z,21.20
2022-12-08T03:09:35.701Z,24.05
2022-12-08T03:12:11.712Z,21.52
2022-12-08T03:14:40.650Z,22.42
2022-12-08T03:17:08.577Z,20.30
2022-12-08T03:19:39.011Z,19.77
2022-12-08T03:22:07.194Z,18.40
2022-12-08T03:24:55.019Z,19.27
2022-12-08T03:27:30.688Z,18.45
2022-12-08T03:29:59.814Z,20.00
2022-12-08T03:32:40.054Z,21.73
2022-12-08T03:35:11.173Z,21.80
2022-12-08T03:37:39.990Z,23.88
2022-12-08T03:40:09.573Z,19.65
2022-12-08T03:42:36.266Z,24.75
2022-12-08T03:45:03.344Z,21.52
2022-12-08T03:47:30.103Z,22.42
2022-12-08T03:49:56.783Z,23.80
2022-12-08T03:52:23.501Z,19.00
2022-12-08T03:54:50.183Z,20.00
2022-12-08T03:57:16.959Z,20.23
2022-12-08T03:59:44.135Z,21.55
2022-12-08T04:02:10.847Z,21.10
2022-12-08T04:04:37.549Z,26.98
2022-12-08T04:07:04.298Z,24.95
2022-12-08T04:09:30.951Z,28.40
2022-12-08T04:11:57.639Z,28.08
2022-12-08T04:14:24.563Z,29.33
2022-12-08T04:16:51.219Z,34.33
2022-12-08T04:19:17.898Z,33.72
2022-12-08T04:21:44.546Z,37.08
2022-12-08T04:24:11.270Z,36.45
2022-12-08T04:26:37.988Z,34.83
2022-12-08T04:29:04.675Z,38.00
2022-12-08T04:31:31.453Z,35.80
2022-12-08T04:33:58.191Z,39.95
2022-12-08T04:36:24.894Z,38.83
2022-12-08T04:38:51.585Z,40.20
2022-12-08T04:41:18.278Z,43.38
2022-12-08T04:43:45.387Z,36.92
2022-12-08T04:46:12.179Z,39.85
2022-12-08T04:48:40.145Z,43.13
2022-12-08T04:51:07.617Z,44.33
2022-12-08T04:53:34.353Z,44.70
2022-12-08T04:56:01.050Z,40.13
2022-12-08T04:58:27.752Z,43.00
2022-12-08T05:00:54.469Z,40.80
2022-12-08T05:03:26.872Z,42.50
2022-12-08T05:05:55.415Z,44.53
2022-12-08T05:08:22.116Z,45.50
2022-12-08T05:10:48.867Z,47.53
2022-12-08T05:13:15.539Z,45.75
2022-12-08T05:15:42.294Z,41.55
2022-12-08T05:18:09.032Z,39.38
2022-12-08T05:20:36.069Z,44.05
2022-12-08T05:23:02.717Z,38.72
2022-12-08T05:25:29.608Z,44.55
2022-12-08T05:28:17.680Z,46.15
2022-12-08T05:30:43.088Z,39.65
2022-12-08T05:33:11.016Z,43.95
2022-12-08T05:35:37.710Z,50.78
2022-12-08T05:38:05.080Z,46.65
2022-12-08T05:40:31.768Z,49.65
2022-12-08T05:42:58.443Z,46.47
2022-12-08T05:45:25.178Z,49.38
2022-12-08T05:47:53.526Z,48.38
2022-12-08T05:50:20.183Z,48.28
2022-12-08T05:52:46.878Z,48.75
2022-12-08T05:55:13.608Z,55.88
2022-12-08T05:57:40.314Z,52.20
2022-12-08T06:00:07.884Z,50.28
2022-12-08T06:02:36.471Z,45.92
2022-12-08T06:05:03.298Z,53.13
2022-12-08T06:07:30.123Z,51.63
2022-12-08T06:09:56.878Z,51.30
2022-12-08T06:12:23.527Z,54.28
2022-12-08T06:14:50.206Z,54.60
2022-12-08T06:17:16.954Z,50.50
2022-12-08T06:19:43.687Z,62.72
2022-12-08T06:22:10.361Z,64.22
2022-12-08T06:24:37.025Z,52.63
2022-12-08T06:27:03.722Z,57.42
2022-12-08T06:29:30.403Z,58.75
2022-12-08T06:31:57.134Z,58.55
2022-12-08T06:34:23.941Z,51.60
2022-12-08T06:36:50.643Z,52.17
2022-12-08T06:39:17.323Z,50.78
2022-12-08T06:41:43.946Z,49.80
2022-12-08T06:44:10.647Z,52.65
2022-12-08T06:46:37.290Z,49.75
2022-12-08T06:49:04.053Z,51.88
2022-12-08T06:51:30.737Z,47.83
2022-12-08T06:53:57.344Z,41.08
2022-12-08T06:56:24.010Z,48.22
2022-12-08T06:58:52.979Z,56.25
2022-12-08T07:01:20.102Z,45.35
2022-12-08T07:03:46.827Z,44.58
2022-12-08T07:06:25.220Z,48.70
2022-12-08T07:08:52.007Z,48.75
2022-12-08T07:11:22.055Z,46.55
2022-12-08T07:13:50.266Z,50.63
2022-12-08T07:16:17.085Z,51.65
2022-12-08T07:18:43.938Z,45.90
2022-12-08T07:21:12.913Z,45.17
2022-12-08T07:23:39.749Z,48.75
2022-12-08T07:26:08.178Z,42.17
2022-12-08T07:28:36.908Z,42.55
2022-12-08T07:31:04.980Z,43.95
2022-12-08T07:33:32.878Z,46.30
2022-12-08T07:36:05.462Z,47.45
2022-12-08T07:38:32.744Z,48.63
2022-12-08T07:40:59.783Z,42.75
2022-12-08T07:43:26.686Z,46.63
2022-12-08T07:45:53.624Z,42.75
2022-12-08T07:48:20.581Z,44.80
2022-12-08T07:50:47.587Z,43.45
2022-12-08T07:53:14.553Z,47.35
2022-12-08T07:55:43.000Z,42.13
2022-12-08T07:58:10.657Z,41.83
2022-12-08T08:00:37.439Z,38.03
2022-12-08T08:03:04.368Z,39.90
2022-12-08T08:05:31.166Z,44.22
2022-12-08T08:07:57.939Z,45.53
2022-12-08T08:10:24.668Z,41.22
2022-12-08T08:12:51.394Z,42.60
2022-12-08T08:15:18.250Z,37.65
2022-12-08T08:17:44.943Z,42.33
2022-12-08T08:20:12.153Z,36.10
2022-12-08T08:22:38.824Z,39.38
2022-12-08T08:25:05.859Z,38.75
2022-12-08T08:27:32.629Z,43.90
2022-12-08T08:29:59.301Z,41.72
2022-12-08T08:32:25.978Z,44.70
2022-12-08T08:34:52.662Z,50.08
2022-12-08T08:37:19.457Z,47.05
2022-12-08T08:39:46.170Z,42.67
2022-12-08T08:42:12.885Z,44.08
2022-12-08T08:44:39.542Z,44.97
2022-12-08T08:47:06.342Z,44.55
2022-12-08T08:49:33.079Z,41.63
2022-12-08T08:51:59.766Z,43.10
2022-12-08T08:54:28.984Z,44.50
2022-12-08T08:57:00.509Z,50.08
2022-12-08T08:59:27.969Z,48.92
2022-12-08T09:01:55.195Z,53.75
2022-12-08T09:04:23.225Z,42.33
2022-12-08T09:06:49.946Z,44.15
2022-12-08T09:09:17.111Z,44.83
2022-12-08T09:11:43.967Z,48.85
2022-12-08T09:14:14.738Z,43.95
2022-12-08T09:16:42.769Z,45.50
2022-12-08T09:19:09.802Z,44.03
2022-12-08T09:21:36.565Z,42.10
2022-12-08T09:24:03.549Z,50.13
2022-12-08T09:26:30.331Z,54.30
2022-12-08T09:28:57.500Z,40.47
2022-12-08T09:31:24.939Z,45.47
2022-12-08T09:33:51.885Z,37.63
2022-12-08T09:36:19.250Z,41.53
2022-12-08T09:38:45.991Z,42.65
2022-12-08T09:41:37.469Z,39.47
2022-12-08T09:44:28.995Z,38.03
2022-12-08T09:46:58.702Z,40.05
2022-12-08T09:49:41.602Z,41.08
2022-12-08T09:52:31.304Z,40.22
2022-12-08T09:55:01.238Z,38.80
2022-12-08T09:57:28.222Z,37.53
2022-12-08T10:00:06.072Z,39.63
2022-12-08T10:02:33.747Z,40.90
2022-12-08T10:05:00.617Z,42.72
2022-12-08T10:07:32.550Z,37.53
2022-12-08T10:10:22.295Z,37.22
2022-12-08T10:13:01.120Z,33.92
2022-12-08T10:15:41.707Z,34.67
2022-12-08T10:18:18.352Z,37.38
2022-12-08T10:20:47.969Z,36.15
2022-12-08T10:23:35.364Z,39.55
2022-12-08T10:26:17.699Z,36.00
2022-12-08T10:28:45.616Z,37.05
2022-12-08T10:31:31.407Z,37.90
2022-12-08T10:34:28.195Z,39.08
2022-12-08T10:36:57.369Z,35.78
2022-12-08T10:39:31.213Z,31.08
2022-12-08T10:42:22.208Z,38.03
2022-12-08T10:45:27.438Z,33.20
2022-12-08T10:48:01.593Z,33.78
2022-12-08T10:50:32.196Z,33.60
2022-12-08T10:53:10.884Z,30.90
2022-12-08T10:55:49.275Z,34.88
2022-12-08T10:58:32.947Z,34.67
2022-12-08T11:01:23.997Z,32.78
2022-12-08T11:03:53.963Z,38.47
2022-12-08T11:06:36.672Z,34.30
2022-12-08T11:09:11.404Z,33.33
2022-12-08T11:11:54.850Z,31.02
2022-12-08T11:14:24.533Z,34.28
2022-12-08T11:17:11.589Z,28.25
2022-12-08T11:19:41.100Z,29.48
2022-12-08T11:22:27.909Z,31.65
2022-12-08T11:25:27.261Z,32.95
2022-12-08T11:27:58.030Z,33.00
2022-12-08T11:30:42.699Z,27.90
2022-12-08T11:33:25.797Z,31.35
2022-12-08T11:36:11.362Z,28.65
2022-12-08T11:38:44.060Z,29.65
2022-12-08T11:41:16.999Z,31.65
2022-12-08T11:44:00.832Z,34.90
2022-12-08T11:46:50.036Z,31.98
2022-12-08T11:49:16.960Z,40.53
2022-12-08T11:51:54.647Z,38.22
2022-12-08T11:54:29.792Z,38.60
2022-12-08T11:56:59.161Z,38.22
2022-12-08T11:59:34.684Z,39.42
2022-12-08T12:02:05.220Z,40.72
2022-12-08T12:04:35.799Z,41.70
2022-12-08T12:07:26.401Z,35.45
2022-12-08T12:09:56.118Z,34.13
2022-12-08T12:12:34.938Z,35.92
2022-12-08T12:15:39.918Z,42.80
2022-12-08T12:18:30.698Z,36.75
2022-12-08T12:21:12.507Z,36.00
2022-12-08T12:23:42.143Z,34.58
2022-12-08T12:26:24.254Z,28.63
2022-12-08T12:29:04.986Z,34.00
2022-12-08T12:31:51.971Z,30.85
2022-12-08T12:34:23.886Z,36.08
2022-12-08T12:36:55.316Z,28.58
2022-12-08T12:39:27.204Z,26.40
2022-12-08T12:41:59.592Z,24.30
2022-12-08T12:44:29.157Z,24.33
2022-12-08T12:47:06.368Z,27.38
2022-12-08T12:49:39.299Z,27.15
2022-12-08T12:52:15.632Z,32.33
2022-12-08T12:54:43.361Z,31.92
2022-12-08T12:57:09.984Z,28.80
2022-12-08T13:00:05.519Z,32.55
2022-12-08T13:02:37.993Z,34.33
2022-12-08T13:05:26.638Z,31.73
2022-12-08T13:07:56.244Z,32.67
2022-12-08T13:10:33.462Z,31.63
2022-12-08T13:13:17.484Z,32.90
2022-12-08T13:15:56.803Z,34.10
2022-12-08T13:18:28.970Z,30.88
2022-12-08T13:21:18.597Z,32.40
2022-12-08T13:24:07.061Z,32.03
2022-12-08T13:26:44.220Z,32.42
2022-12-08T13:29:27.051Z,33.40
2022-12-08T13:31:57.467Z,26.08
2022-12-08T13:34:32.979Z,31.55
2022-12-08T13:37:11.996Z,30.98
2022-12-08T13:39:44.702Z,27.65
2022-12-08T13:42:32.587Z,28.50
2022-12-08T13:48:27.030Z,30.63
2022-12-08T13:55:00.736Z,25.13
2022-12-08T13:57:11.246Z,26.42
2022-12-08T13:59:44.840Z,29.98
2022-12-08T14:02:29.937Z,30.95
2022-12-08T14:07:44.639Z,28.75
2022-12-08T14:10:19.422Z,32.15
2022-12-08T14:12:51.336Z,29.70
2022-12-08T14:15:19.977Z,27.77
2022-12-08T14:17:55.597Z,27.45
2022-12-08T14:20:46.475Z,21.60
2022-12-08T14:25:47.897Z,21.92
2022-12-08T14:28:14.634Z,18.00
2022-12-08T14:30:41.420Z,18.10
2022-12-08T14:33:14.529Z,22.15
2022-12-08T14:35:41.323Z,17.70
2022-12-08T14:38:19.605Z,22.27
2022-12-08T14:40:48.992Z,18.58
2022-12-08T14:43:18.647Z,18.98
2022-12-08T14:45:45.391Z,19.65
2022-12-08T14:48:26.478Z,16.30
2022-12-08T14:51:15.244Z,14.93
2022-12-08T14:53:54.556Z,13.82
2022-12-08T14:56:36.175Z,14.25
2022-12-08T14:59:07.326Z,18.88
2022-12-08T15:01:35.070Z,13.98
2022-12-08T15:04:12.527Z,17.38
2022-12-08T15:07:13.577Z,15.05
2022-12-08T15:09:42.088Z,13.98
2022-12-08T15:12:14.970Z,15.30
2022-12-08T15:14:55.102Z,16.50
2022-12-08T15:17:40.210Z,15.75
2022-12-08T15:20:27.576Z,14.85
2022-12-08T15:22:58.532Z,18.10
2022-12-08T15:25:25.378Z,14.60
2022-12-08T15:27:52.181Z,17.85
2022-12-08T15:30:19.431Z,20.83
2022-12-08T15:32:46.175Z,17.55
2022-12-08T15:35:14.577Z,17.05
2022-12-08T15:37:41.896Z,15.13
2022-12-08T15:40:17.109Z,17.55
2022-12-08T15:42:43.799Z,16.17
2022-12-08T15:45:14.277Z,17.02
2022-12-08T15:47:42.454Z,18.70
2022-12-08T15:50:18.544Z,18.15
2022-12-08T15:52:45.558Z,16.92
2022-12-08T15:55:17.322Z,17.48
2022-12-08T16:00:53.856Z,17.83
2022-12-08T16:09:12.322Z,18.95
2022-12-08T16:12:05.258Z,16.33
2022-12-08T16:15:46.702Z,16.88
2022-12-08T16:17:15.827Z,18.50
2022-12-08T16:19:42.607Z,18.85
2022-12-08T16:25:22.658Z,19.88
2022-12-08T16:28:08.337Z,18.55
2022-12-08T16:30:39.693Z,18.88
2022-12-08T16:33:06.731Z,20.08
2022-12-08T16:35:33.525Z,17.10
2022-12-08T16:38:00.297Z,15.88
2022-12-08T16:40:26.985Z,16.65
2022-12-08T16:42:53.737Z,15.77
2022-12-08T16:45:26.148Z,18.25
2022-12-08T16:47:54.137Z,14.95
2022-12-08T16:50:23.286Z,17.75
2022-12-08T16:52:56.098Z,15.27
2022-12-08T16:55:22.867Z,15.32
2022-12-08T16:57:49.597Z,15.25
2022-12-08T17:00:22.048Z,15.00
2022-12-08T17:02:49.543Z,16.48
2022-12-08T17:05:18.443Z,14.77
2022-12-08T17:07:47.061Z,13.45
2022-12-08T17:10:17.458Z,13.70
2022-12-08T17:12:44.824Z,14.45
2022-12-08T17:15:15.301Z,15.00
2022-12-08T17:17:42.212Z,15.32
2022-12-08T17:20:15.363Z,16.15
2022-12-08T17:22:42.075Z,15.10
2022-12-08T17:25:09.195Z,14.77
2022-12-08T17:27:36.792Z,14.77
2022-12-08T17:30:05.564Z,15.07
2022-12-08T17:32:32.743Z,18.25
2022-12-08T17:34:59.599Z,15.13
2022-12-08T17:37:26.518Z,17.27
2022-12-08T17:39:54.408Z,18.15
2022-12-08T17:42:21.216Z,18.00
2022-12-08T17:44:47.997Z,17.50
2022-12-08T17:47:14.674Z,20.33
2022-12-08T17:49:41.478Z,19.70
2022-12-08T17:52:08.179Z,17.40
2022-12-08T17:54:34.981Z,19.10
2022-12-08T17:57:01.869Z,19.45
2022-12-08T17:59:29.315Z,18.27
2022-12-08T18:01:57.526Z,20.27
2022-12-08T18:04:26.429Z,18.80
2022-12-08T18:06:53.228Z,17.98
2022-12-08T18:09:20.287Z,18.52
2022-12-08T18:11:47.269Z,19.15
2022-12-08T18:14:14.588Z,20.25
2022-12-08T18:16:45.972Z,22.98
2022-12-08T18:19:14.032Z,19.35
2022-12-08T18:21:41.726Z,21.17
2022-12-08T18:24:15.097Z,20.05
2022-12-08T18:26:41.830Z,21.33
2022-12-08T18:29:08.752Z,21.38
2022-12-08T18:31:35.501Z,19.17
2022-12-08T18:34:02.332Z,23.25
2022-12-08T18:36:29.093Z,19.20
2022-12-08T18:38:55.826Z,20.05
2022-12-08T18:41:25.172Z,23.83
2022-12-08T18:43:56.256Z,21.02
2022-12-08T18:46:24.162Z,20.63
2022-12-08T18:48:51.980Z,23.13
2022-12-08T18:51:25.303Z,22.80
2022-12-08T18:53:52.828Z,24.23
2022-12-08T18:56:29.252Z,28.38
2022-12-08T18:59:02.989Z,21.88
2022-12-08T19:01:35.101Z,22.35
2022-12-08T19:04:27.320Z,25.67
2022-12-08T19:06:52.820Z,25.33
2022-12-08T19:09:20.078Z,21.20
2022-12-08T19:11:46.967Z,25.33
2022-12-08T19:14:13.639Z,24.55
2022-12-08T19:16:40.335Z,27.98
2022-12-08T19:19:07.090Z,22.42
2022-12-08T19:21:35.791Z,22.63
2022-12-08T19:24:02.511Z,21.35
2022-12-08T19:26:29.281Z,23.38
2022-12-08T19:28:57.061Z,23.92
2022-12-08T19:31:23.782Z,26.88
2022-12-08T19:33:50.562Z,20.92
2022-12-08T19:36:20.880Z,21.50
2022-12-08T19:38:47.698Z,21.90
2022-12-08T19:41:14.381Z,17.45
2022-12-08T19:43:41.189Z,18.48
2022-12-08T19:46:08.785Z,16.92
2022-12-08T19:48:35.609Z,16.33
2022-12-08T19:51:02.396Z,17.30
2022-12-08T19:53:29.061Z,16.67
2022-12-08T19:55:55.754Z,15.07
2022-12-08T19:58:22.464Z,15.40
2022-12-08T20:00:49.193Z,16.15
2022-12-08T20:03:18.052Z,17.98
2022-12-08T20:05:46.664Z,18.95
2022-12-08T20:08:13.503Z,16.73
2022-12-08T20:10:42.293Z,19.15
2022-12-08T20:13:13.476Z,17.20
2022-12-08T20:15:40.746Z,15.77
2022-12-08T20:18:07.612Z,17.27
2022-12-08T20:20:34.364Z,18.33
2022-12-08T20:23:01.341Z,18.40
2022-12-08T20:25:30.507Z,18.45
2022-12-08T20:27:57.324Z,22.45
2022-12-08T20:30:24.270Z,18.58
2022-12-08T20:32:56.126Z,18.33
2022-12-08T20:35:23.080Z,19.45
2022-12-08T20:37:50.002Z,17.52
2022-12-08T20:40:19.107Z,16.58
2022-12-08T20:42:45.959Z,24.88
2022-12-08T20:45:12.850Z,22.50
2022-12-08T20:47:39.638Z,18.00
2022-12-08T20:50:07.834Z,17.70
2022-12-08T20:52:34.882Z,17.23
2022-12-08T20:55:01.758Z,17.40
2022-12-08T20:57:28.677Z,18.95
2022-12-08T20:59:55.602Z,19.23
2022-12-08T21:02:22.442Z,18.65
2022-12-08T21:04:49.408Z,19.45
2022-12-08T21:07:16.459Z,18.40
2022-12-08T21:09:44.113Z,18.13
2022-12-08T21:12:11.592Z,17.90
2022-12-08T21:14:38.438Z,18.35
2022-12-08T21:17:07.213Z,20.48
2022-12-08T21:19:34.344Z,19.67
2022-12-08T21:22:01.258Z,21.15
2022-12-08T21:24:33.968Z,20.20
2022-12-08T21:27:01.941Z,20.42
2022-12-08T21:29:29.236Z,21.23
2022-12-08T21:31:59.349Z,18.50
2022-12-08T21:34:28.159Z,20.98
2022-12-08T21:36:55.022Z,22.10
2022-12-08T21:39:21.741Z,21.33
2022-12-08T21:41:51.695Z,22.35
2022-12-08T21:44:18.707Z,22.52
2022-12-08T21:46:45.568Z,23.83
2022-12-08T21:49:12.963Z,22.10
2022-12-08T21:51:39.797Z,23.88
2022-12-08T21:54:06.725Z,24.45
2022-12-08T21:56:33.630Z,22.58
2022-12-08T21:59:00.581Z,20.70
2022-12-08T22:01:27.650Z,22.27
2022-12-08T22:03:54.810Z,25.40
2022-12-08T22:06:21.800Z,22.63
2022-12-08T22:08:48.689Z,23.70
2022-12-08T22:11:15.613Z,22.63
2022-12-08T22:13:42.508Z,23.73
2022-12-08T22:16:12.118Z,23.05
2022-12-08T22:18:39.174Z,23.85
2022-12-08T22:21:17.278Z,25.55
2022-12-08T22:23:45.192Z,22.83
2022-12-08T22:26:13.215Z,23.60
2022-12-08T22:28:41.987Z,25.10
2022-12-08T22:31:19.501Z,28.02
2022-12-08T22:33:47.226Z,25.23
2022-12-08T22:36:25.507Z,26.33
2022-12-08T22:38:54.808Z,25.35
2022-12-08T22:41:22.150Z,26.40
2022-12-08T22:43:49.450Z,25.92
2022-12-08T22:46:19.919Z,25.70
2022-12-08T22:48:47.630Z,24.42
2022-12-08T22:51:15.273Z,31.00
2022-12-08T22:53:43.215Z,30.40
2022-12-08T22:56:11.848Z,26.10
2022-12-08T22:58:39.927Z,26.70
2022-12-08T23:01:07.564Z,25.90
2022-12-08T23:03:34.980Z,28.20
2022-12-08T23:06:02.227Z,25.33
2022-12-08T23:08:31.712Z,27.38
2022-12-08T23:10:58.500Z,26.48
2022-12-08T23:13:25.230Z,23.58
2022-12-08T23:15:51.931Z,25.40
2022-12-08T23:18:19.620Z,23.98
2022-12-08T23:20:47.150Z,24.40
2022-12-08T23:23:14.617Z,26.45
2022-12-08T23:25:43.080Z,22.00
2022-12-08T23:28:10.243Z,24.75
2022-12-08T23:30:39.976Z,26.02
2022-12-08T23:33:06.904Z,23.27
2022-12-08T23:35:33.780Z,26.10
2022-12-08T23:38:00.791Z,21.05
2022-12-08T23:40:27.551Z,16.88
2022-12-08T23:42:54.436Z,20.17
2022-12-08T23:45:21.241Z,25.30
2022-12-08T23:47:48.068Z,25.02
2022-12-08T23:50:15.037Z,27.85
2022-12-08T23:52:41.739Z,32.58
2022-12-08T23:55:08.890Z,31.42
2022-12-08T23:57:36.631Z,35.45
